Time;durP1;ratioP1;P1;durP2;ratioP2;P2;SDS_P1;SDS_P2;PMS_P1;PMS_P2;Temp;Humidity;BMP_temperature;BMP_pressure;BME280_temperature;BME280_humidity;BME280_pressure;Samples;Min_cycle;Max_cycle;Signal;HPM_P1;HPM_P2
2021/11/03 00:01:58;;;;;;;3.47;2.05;;;;;;;;;;5055118;28;20107;-91
2021/11/03 00:04:24;;;;;;;3.00;1.92;;;;;;;;;;5058572;28;20044;-91
2021/11/03 00:06:50;;;;;;;4.35;2.58;;;;;;;;;;5058797;28;20127;-94
2021/11/03 00:09:17;;;;;;;3.35;2.10;;;;;;;;;;5052250;28;20064;-92
2021/11/03 00:11:43;;;;;;;3.75;1.98;;;;;;;;;;5057111;28;20033;-92
2021/11/03 00:14:10;;;;;;;5.13;2.15;;;;;;;;;;5048662;28;20076;-92
2021/11/03 00:16:36;;;;;;;3.90;2.20;;;;;;;;;;5053987;28;20037;-91
2021/11/03 00:19:03;;;;;;;3.35;1.95;;;;;;;;;;5047325;28;20025;-93
2021/11/03 00:21:29;;;;;;;4.25;2.10;;;;;;;;;;5053275;28;20024;-92
2021/11/03 00:23:55;;;;;;;3.70;2.20;;;;;;;;;;5055337;28;20037;-93
2021/11/03 00:26:22;;;;;;;4.10;2.33;;;;;;;;;;5037355;28;20072;-93
2021/11/03 00:28:48;;;;;;;4.53;2.25;;;;;;;;;;5054285;28;20028;-91
2021/11/03 00:31:15;;;;;;;4.57;2.30;;;;;;;;;;5049706;28;20033;-91
2021/11/03 00:33:41;;;;;;;4.03;2.00;;;;;;;;;;5053447;28;20090;-93
2021/11/03 00:36:08;;;;;;;3.97;2.03;;;;;;;;;;5051721;28;20040;-93
2021/11/03 00:38:34;;;;;;;4.25;2.20;;;;;;;;;;5051606;28;20021;-92
2021/11/03 00:41:01;;;;;;;3.60;2.30;;;;;;;;;;5059986;28;20036;-92
2021/11/03 00:43:27;;;;;;;3.78;2.33;;;;;;;;;;5047762;28;20041;-93
2021/11/03 00:45:53;;;;;;;5.25;2.30;;;;;;;;;;5051443;28;20025;-92
2021/11/03 00:48:20;;;;;;;3.03;1.90;;;;;;;;;;5053499;28;20033;-92
2021/11/03 00:50:47;;;;;;;4.05;2.15;;;;;;;;;;5055742;28;20032;-92
2021/11/03 00:53:14;;;;;;;3.67;2.55;;;;;;;;;;5046174;28;20017;-92
2021/11/03 00:55:41;;;;;;;4.15;2.30;;;;;;;;;;5045707;28;20049;-93
2021/11/03 00:58:07;;;;;;;3.72;2.20;;;;;;;;;;5052501;28;20032;-93
2021/11/03 01:00:34;;;;;;;3.80;2.42;;;;;;;;;;5052354;28;20037;-94
2021/11/03 01:03:01;;;;;;;3.78;2.20;;;;;;;;;;5053930;28;20029;-93
2021/11/03 01:05:28;;;;;;;4.72;2.03;;;;;;;;;;5051277;28;20029;-92
2021/11/03 01:07:54;;;;;;;6.63;2.35;;;;;;;;;;5050498;28;20154;-93
2021/11/03 01:10:24;;;;;;;3.50;1.90;;;;;;;;;;5048381;28;20033;-92
2021/11/03 01:12:52;;;;;;;3.72;2.17;;;;;;;;;;5045322;28;20545;-92
2021/11/03 01:15:20;;;;;;;4.28;2.55;;;;;;;;;;5067475;28;20037;-93
2021/11/03 01:17:47;;;;;;;4.43;2.13;;;;;;;;;;5050031;28;22393;-92
2021/11/03 01:20:14;;;;;;;3.88;2.15;;;;;;;;;;5065338;28;20020;-93
2021/11/03 01:22:41;;;;;;;3.13;1.83;;;;;;;;;;5065865;28;20032;-93
2021/11/03 01:25:08;;;;;;;3.70;2.22;;;;;;;;;;5058674;28;20025;-91
2021/11/03 01:27:35;;;;;;;3.92;2.00;;;;;;;;;;5054092;28;20098;-92
2021/11/03 01:30:02;;;;;;;4.38;2.65;;;;;;;;;;5062589;28;20021;-93
2021/11/03 01:32:28;;;;;;;6.10;2.45;;;;;;;;;;5065305;28;20041;-92
2021/11/03 01:34:54;;;;;;;3.25;1.98;;;;;;;;;;5059450;28;20312;-92
2021/11/03 01:37:21;;;;;;;3.38;1.88;;;;;;;;;;5060075;28;20033;-90
2021/11/03 01:39:47;;;;;;;3.75;1.98;;;;;;;;;;5059482;28;20620;-93
2021/11/03 01:42:14;;;;;;;3.65;2.28;;;;;;;;;;5061883;28;20033;-92
2021/11/03 01:44:40;;;;;;;4.43;2.38;;;;;;;;;;5061333;28;20041;-91
2021/11/03 01:47:25;;;;;;;4.07;2.22;;;;;;;;;;5057473;28;20036;-92
2021/11/03 01:49:51;;;;;;;3.42;2.17;;;;;;;;;;5056932;28;20143;-91
2021/11/03 01:52:18;;;;;;;2.75;1.95;;;;;;;;;;5057280;28;20056;-91
2021/11/03 01:54:55;;;;;;;2.92;1.92;;;;;;;;;;5055877;28;20314;-93
2021/11/03 01:57:25;;;;;;;3.67;1.80;;;;;;;;;;5017336;28;20046;-91
2021/11/03 01:59:53;;;;;;;3.28;1.80;;;;;;;;;;5011348;28;20404;-93
2021/11/03 02:02:20;;;;;;;3.10;1.67;;;;;;;;;;5046918;28;20567;-93
2021/11/03 02:04:47;;;;;;;4.13;2.03;;;;;;;;;;5038804;28;20485;-92
2021/11/03 02:07:16;;;;;;;3.53;1.80;;;;;;;;;;4995659;28;20026;-93
2021/11/03 02:09:43;;;;;;;3.17;1.90;;;;;;;;;;5034654;28;20033;-92
2021/11/03 02:12:18;;;;;;;4.47;2.30;;;;;;;;;;5033297;28;20033;-92
2021/11/03 02:14:45;;;;;;;5.57;1.95;;;;;;;;;;5017476;28;20511;-94
2021/11/03 02:17:11;;;;;;;2.50;1.50;;;;;;;;;;5025674;28;20022;-93
2021/11/03 02:19:38;;;;;;;3.67;2.28;;;;;;;;;;5032534;28;20034;-92
2021/11/03 02:22:08;;;;;;;2.92;2.00;;;;;;;;;;5034053;28;20021;-93
2021/11/03 02:24:44;;;;;;;2.60;1.80;;;;;;;;;;4996179;28;20034;-92
2021/11/03 02:27:12;;;;;;;3.50;1.75;;;;;;;;;;5022996;28;20494;-92
2021/11/03 02:29:39;;;;;;;3.55;1.85;;;;;;;;;;5024863;28;20029;-93
2021/11/03 02:32:13;;;;;;;2.67;1.75;;;;;;;;;;5022394;28;20030;-93
2021/11/03 02:34:39;;;;;;;2.78;1.65;;;;;;;;;;5014095;28;20071;-92
2021/11/03 02:37:24;;;;;;;2.80;1.80;;;;;;;;;;5032810;28;20029;-92
2021/11/03 02:39:54;;;;;;;3.53;1.80;;;;;;;;;;5033034;28;20508;-92
2021/11/03 02:42:20;;;;;;;5.43;1.92;;;;;;;;;;5029725;28;20017;-92
2021/11/03 02:44:48;;;;;;;3.72;1.60;;;;;;;;;;5023183;28;20034;-93
2021/11/03 02:47:14;;;;;;;2.78;1.80;;;;;;;;;;5035805;28;20060;-93
2021/11/03 02:49:41;;;;;;;2.97;1.80;;;;;;;;;;5035172;28;20473;-94
2021/11/03 02:52:26;;;;;;;2.88;1.88;;;;;;;;;;5032740;28;20056;-92
2021/11/03 02:54:53;;;;;;;2.85;1.80;;;;;;;;;;5037219;28;20041;-92
2021/11/03 02:57:20;;;;;;;3.38;1.60;;;;;;;;;;5022900;28;20038;-92
2021/11/03 02:59:46;;;;;;;3.35;1.70;;;;;;;;;;5037931;28;20504;-93
2021/11/03 03:02:13;;;;;;;2.63;1.60;;;;;;;;;;5015211;28;20037;-91
2021/11/03 03:04:42;;;;;;;3.00;1.83;;;;;;;;;;5021275;28;20041;-92
2021/11/03 03:07:10;;;;;;;3.00;1.70;;;;;;;;;;5040461;28;20034;-92
2021/11/03 03:09:36;;;;;;;3.42;1.88;;;;;;;;;;5041995;28;20037;-92
2021/11/03 03:12:05;;;;;;;2.95;1.70;;;;;;;;;;5044012;28;20025;-92
2021/11/03 03:14:35;;;;;;;2.80;1.80;;;;;;;;;;5035484;28;20170;-93
2021/11/03 03:17:02;;;;;;;3.28;1.90;;;;;;;;;;5039070;28;20543;-93
2021/11/03 03:19:29;;;;;;;2.40;1.60;;;;;;;;;;5026481;28;20048;-92
2021/11/03 03:21:55;;;;;;;2.72;1.80;;;;;;;;;;5022323;28;20034;-92
2021/11/03 03:24:21;;;;;;;2.15;1.58;;;;;;;;;;5041515;28;20117;-92
2021/11/03 03:26:48;;;;;;;2.30;1.65;;;;;;;;;;5038456;28;20033;-92
2021/11/03 03:29:15;;;;;;;2.58;1.67;;;;;;;;;;5034548;28;20030;-92
2021/11/03 03:31:42;;;;;;;3.08;1.67;;;;;;;;;;5023152;28;20378;-92
2021/11/03 03:34:11;;;;;;;3.10;1.70;;;;;;;;;;5016997;28;20045;-92
2021/11/03 03:36:38;;;;;;;2.42;1.50;;;;;;;;;;5036568;28;20045;-95
2021/11/03 03:39:08;;;;;;;2.95;1.60;;;;;;;;;;5028981;28;20034;-92
2021/11/03 03:41:37;;;;;;;2.28;1.55;;;;;;;;;;5034423;28;20453;-93
2021/11/03 03:44:04;;;;;;;2.40;1.63;;;;;;;;;;5032532;28;20093;-92
2021/11/03 03:46:31;;;;;;;3.05;1.70;;;;;;;;;;5029873;28;20092;-92
2021/11/03 03:48:57;;;;;;;3.17;2.00;;;;;;;;;;5034555;28;20431;-92
2021/11/03 03:51:24;;;;;;;3.35;1.70;;;;;;;;;;5009279;28;20087;-92
2021/11/03 03:53:50;;;;;;;3.05;1.80;;;;;;;;;;5033790;28;20469;-93
2021/11/03 03:56:18;;;;;;;4.97;1.75;;;;;;;;;;5032856;28;20049;-91
2021/11/03 03:58:45;;;;;;;2.45;1.40;;;;;;;;;;4997855;28;21278;-92
2021/11/03 04:01:13;;;;;;;2.40;1.60;;;;;;;;;;5033777;28;20084;-92
2021/11/03 04:03:40;;;;;;;2.42;1.40;;;;;;;;;;5012631;28;20081;-94
2021/11/03 04:06:06;;;;;;;2.75;1.30;;;;;;;;;;5020633;28;20044;-93
2021/11/03 04:08:33;;;;;;;2.20;1.33;;;;;;;;;;5033150;28;20026;-92
2021/11/03 04:11:02;;;;;;;2.50;1.52;;;;;;;;;;5021411;28;20029;-93
2021/11/03 04:13:28;;;;;;;3.28;1.60;;;;;;;;;;5020245;28;20021;-92
2021/11/03 04:15:56;;;;;;;2.75;1.50;;;;;;;;;;5021507;28;20116;-92
2021/11/03 04:18:23;;;;;;;2.40;1.48;;;;;;;;;;5029313;28;20030;-94
2021/11/03 04:20:49;;;;;;;2.22;1.50;;;;;;;;;;5030729;28;20030;-93
2021/11/03 04:23:16;;;;;;;2.80;1.50;;;;;;;;;;5029522;28;20038;-92
2021/11/03 04:25:42;;;;;;;3.30;1.60;;;;;;;;;;5031351;28;20030;-91
2021/11/03 04:28:09;;;;;;;2.80;1.50;;;;;;;;;;5019320;28;20085;-92
2021/11/03 04:30:36;;;;;;;2.53;1.50;;;;;;;;;;5027909;28;20030;-93
2021/11/03 04:33:03;;;;;;;2.28;1.42;;;;;;;;;;5037148;28;20041;-93
2021/11/03 04:35:30;;;;;;;2.20;1.60;;;;;;;;;;5015150;28;20045;-93
2021/11/03 04:37:56;;;;;;;2.00;1.42;;;;;;;;;;5031377;28;20033;-93
2021/11/03 04:40:23;;;;;;;2.38;1.23;;;;;;;;;;5015318;28;20126;-92
2021/11/03 04:42:50;;;;;;;2.80;1.60;;;;;;;;;;5040367;28;20041;-93
2021/11/03 04:45:17;;;;;;;4.13;1.30;;;;;;;;;;5044170;28;20477;-91
2021/11/03 04:47:43;;;;;;;2.67;1.35;;;;;;;;;;5024283;28;20052;-92
2021/11/03 04:50:13;;;;;;;1.83;1.27;;;;;;;;;;5039383;28;20029;-91
2021/11/03 04:52:40;;;;;;;2.53;1.42;;;;;;;;;;5034790;28;20045;-94
2021/11/03 04:55:06;;;;;;;2.10;1.30;;;;;;;;;;5036504;28;20516;-91
2021/11/03 04:57:32;;;;;;;3.78;1.63;;;;;;;;;;5032837;28;20042;-90
2021/11/03 05:00:04;;;;;;;2.53;1.58;;;;;;;;;;5030256;28;20029;-94
2021/11/03 05:02:30;;;;;;;2.47;1.40;;;;;;;;;;5029457;28;20044;-92
2021/11/03 05:04:57;;;;;;;3.85;1.50;;;;;;;;;;5021744;28;20069;-93
2021/11/03 05:07:23;;;;;;;2.97;1.38;;;;;;;;;;5037172;28;20036;-91
2021/11/03 05:09:50;;;;;;;2.40;1.40;;;;;;;;;;5037814;28;20025;-92
2021/11/03 05:12:16;;;;;;;2.45;1.40;;;;;;;;;;5022185;28;20037;-94
2021/11/03 05:14:42;;;;;;;2.40;1.30;;;;;;;;;;5032552;28;20037;-93
2021/11/03 05:17:10;;;;;;;2.42;1.48;;;;;;;;;;5003994;28;20045;-92
2021/11/03 05:19:36;;;;;;;2.10;1.40;;;;;;;;;;5036811;28;20037;-93
2021/11/03 05:22:03;;;;;;;2.65;1.42;;;;;;;;;;5034425;28;20049;-94
2021/11/03 05:24:30;;;;;;;2.92;1.60;;;;;;;;;;5037932;28;20037;-93
2021/11/03 05:26:56;;;;;;;2.42;1.23;;;;;;;;;;5034797;28;20037;-94
2021/11/03 05:29:23;;;;;;;2.60;1.42;;;;;;;;;;5043147;28;20033;-94
2021/11/03 05:31:50;;;;;;;2.35;1.35;;;;;;;;;;5038428;28;20029;-93
2021/11/03 05:34:16;;;;;;;2.15;1.50;;;;;;;;;;5022297;28;20037;-93
2021/11/03 05:36:43;;;;;;;1.98;1.23;;;;;;;;;;5023971;28;20034;-94
2021/11/03 05:39:12;;;;;;;2.40;1.33;;;;;;;;;;5041454;28;20037;-93
2021/11/03 05:41:39;;;;;;;3.28;1.33;;;;;;;;;;5040319;28;20052;-93
2021/11/03 05:44:16;;;;;;;2.50;1.60;;;;;;;;;;5030834;28;20064;-92
2021/11/03 05:46:47;;;;;;;1.58;1.10;;;;;;;;;;5033820;28;20570;-92
2021/11/03 05:49:14;;;;;;;1.67;1.20;;;;;;;;;;5039420;28;20026;-93
2021/11/03 05:51:42;;;;;;;2.85;1.33;;;;;;;;;;5038396;28;20033;-93
2021/11/03 05:54:09;;;;;;;2.35;1.35;;;;;;;;;;5036660;28;20025;-94
2021/11/03 05:56:35;;;;;;;2.40;1.17;;;;;;;;;;5015660;28;20045;-93
2021/11/03 05:59:02;;;;;;;2.42;1.25;;;;;;;;;;5004811;28;20030;-93
2021/11/03 06:01:28;;;;;;;2.80;1.35;;;;;;;;;;5018305;28;20440;-93
2021/11/03 06:03:55;;;;;;;3.28;1.13;;;;;;;;;;5012569;28;20029;-94
2021/11/03 06:06:22;;;;;;;3.22;1.38;;;;;;;;;;5028591;28;20021;-93
2021/11/03 06:08:52;;;;;;;3.05;1.40;;;;;;;;;;5028124;28;20485;-92
2021/11/03 06:11:20;;;;;;;2.80;1.52;;;;;;;;;;5035675;28;20029;-92
2021/11/03 06:13:47;;;;;;;2.15;1.35;;;;;;;;;;5026834;28;21046;-92
2021/11/03 06:16:13;;;;;;;2.33;1.15;;;;;;;;;;5031578;28;20087;-92
2021/11/03 06:18:40;;;;;;;2.17;1.17;;;;;;;;;;5028799;28;20748;-92
2021/11/03 06:21:07;;;;;;;1.98;1.45;;;;;;;;;;5019937;28;20486;-93
2021/11/03 06:23:33;;;;;;;2.08;1.13;;;;;;;;;;5032338;28;20040;-94
2021/11/03 06:25:59;;;;;;;3.28;1.45;;;;;;;;;;5034246;28;20492;-92
2021/11/03 06:28:26;;;;;;;1.80;1.20;;;;;;;;;;5028807;28;20042;-92
2021/11/03 06:30:53;;;;;;;2.70;1.40;;;;;;;;;;5014262;28;20030;-92
2021/11/03 06:33:19;;;;;;;2.20;1.40;;;;;;;;;;5035034;28;20030;-92
2021/11/03 06:35:46;;;;;;;1.90;1.20;;;;;;;;;;5031316;28;20217;-91
2021/11/03 06:38:14;;;;;;;2.40;1.08;;;;;;;;;;5032655;28;20029;-91
2021/11/03 06:40:42;;;;;;;2.85;1.10;;;;;;;;;;5013543;28;20478;-91
2021/11/03 06:43:08;;;;;;;1.50;1.02;;;;;;;;;;5016377;28;20038;-93
2021/11/03 06:45:34;;;;;;;2.30;1.20;;;;;;;;;;5019824;28;20083;-92
2021/11/03 06:48:01;;;;;;;2.35;1.20;;;;;;;;;;5037723;28;20025;-93
2021/11/03 06:50:33;;;;;;;2.67;1.20;;;;;;;;;;5038097;28;20514;-93
2021/11/03 06:53:04;;;;;;;3.47;1.40;;;;;;;;;;5009234;28;20038;-94
2021/11/03 06:55:30;;;;;;;1.67;1.20;;;;;;;;;;5035580;28;20049;-94
2021/11/03 06:57:57;;;;;;;2.53;1.35;;;;;;;;;;5033750;28;20037;-92
2021/11/03 07:00:26;;;;;;;1.60;1.13;;;;;;;;;;5037661;28;20026;-92
2021/11/03 07:02:52;;;;;;;2.15;1.30;;;;;;;;;;5012455;28;20099;-92
2021/11/03 07:05:18;;;;;;;4.07;1.50;;;;;;;;;;5031821;28;20033;-92
2021/11/03 07:07:45;;;;;;;4.00;1.42;;;;;;;;;;5035684;28;20363;-92
2021/11/03 07:10:13;;;;;;;3.03;1.23;;;;;;;;;;5034642;28;20485;-92
2021/11/03 07:12:39;;;;;;;2.33;1.40;;;;;;;;;;5002830;28;20030;-92
2021/11/03 07:15:06;;;;;;;2.45;1.30;;;;;;;;;;5019821;28;20757;-93
2021/11/03 07:17:32;;;;;;;2.60;1.23;;;;;;;;;;5009983;28;20033;-93
2021/11/03 07:19:59;;;;;;;2.40;1.20;;;;;;;;;;5026743;28;20034;-92
2021/11/03 07:22:25;;;;;;;2.55;1.23;;;;;;;;;;5029459;28;20038;-92
2021/11/03 07:24:53;;;;;;;2.20;1.17;;;;;;;;;;5035261;28;20032;-91
2021/11/03 07:27:20;;;;;;;2.55;1.35;;;;;;;;;;5033778;28;20029;-91
2021/11/03 07:29:48;;;;;;;1.38;1.00;;;;;;;;;;5041609;28;20099;-91
2021/11/03 07:32:14;;;;;;;2.00;1.10;;;;;;;;;;5025772;28;20051;-92
2021/11/03 07:34:40;;;;;;;2.60;1.55;;;;;;;;;;5017766;28;20353;-91
2021/11/03 07:37:07;;;;;;;1.70;1.10;;;;;;;;;;5034308;28;20045;-94
2021/11/03 07:39:34;;;;;;;2.65;1.20;;;;;;;;;;5027082;28;20619;-92
2021/11/03 07:42:01;;;;;;;2.53;1.17;;;;;;;;;;5023594;28;20075;-92
2021/11/03 07:44:27;;;;;;;3.05;1.30;;;;;;;;;;5031922;28;20045;-91
2021/11/03 07:46:54;;;;;;;2.15;1.25;;;;;;;;;;5035150;28;20079;-91
2021/11/03 07:49:21;;;;;;;1.65;1.20;;;;;;;;;;5019855;28;20022;-88
2021/11/03 07:51:47;;;;;;;2.70;1.17;;;;;;;;;;5039465;28;20040;-91
2021/11/03 07:54:14;;;;;;;2.08;1.27;;;;;;;;;;5016332;28;20029;-91
2021/11/03 07:56:42;;;;;;;1.88;1.20;;;;;;;;;;4993912;28;20115;-91
2021/11/03 07:59:08;;;;;;;2.17;1.08;;;;;;;;;;4997471;28;20030;-90
2021/11/03 08:01:34;;;;;;;2.28;1.38;;;;;;;;;;5036595;28;20030;-92
2021/11/03 08:04:01;;;;;;;2.75;1.40;;;;;;;;;;5032402;28;20033;-92
2021/11/03 08:06:28;;;;;;;1.75;1.30;;;;;;;;;;5026219;28;20096;-92
2021/11/03 08:11:30;;;;;;;2.45;1.25;;;;;;;;;;5026203;28;20033;-92
2021/11/03 08:13:56;;;;;;;1.73;1.17;;;;;;;;;;5027044;28;20030;-92
2021/11/03 08:16:23;;;;;;;3.17;1.40;;;;;;;;;;5025282;28;20033;-90
2021/11/03 08:18:49;;;;;;;2.42;1.25;;;;;;;;;;5016636;28;20033;-93
2021/11/03 08:21:16;;;;;;;2.92;1.20;;;;;;;;;;5035017;28;20056;-92
2021/11/03 08:23:43;;;;;;;4.00;1.35;;;;;;;;;;5020403;28;20041;-92
2021/11/03 08:26:09;;;;;;;2.00;1.15;;;;;;;;;;5017193;28;20033;-92
2021/11/03 08:28:36;;;;;;;2.03;1.30;;;;;;;;;;5012092;28;20030;-91
2021/11/03 08:31:03;;;;;;;2.47;1.40;;;;;;;;;;5030905;28;20033;-92
2021/11/03 08:33:38;;;;;;;1.98;1.20;;;;;;;;;;5033088;28;20040;-91
2021/11/03 08:36:06;;;;;;;2.53;1.40;;;;;;;;;;5034044;28;20041;-92
2021/11/03 08:38:33;;;;;;;3.85;1.40;;;;;;;;;;5028765;28;20036;-92
2021/11/03 08:41:00;;;;;;;2.70;1.20;;;;;;;;;;5031809;28;20420;-93
2021/11/03 08:43:28;;;;;;;3.28;1.52;;;;;;;;;;5033602;28;20037;-92
2021/11/03 08:45:55;;;;;;;2.83;1.20;;;;;;;;;;4995321;28;20440;-93
2021/11/03 08:48:23;;;;;;;3.13;1.40;;;;;;;;;;5011147;28;20029;-91
2021/11/03 08:50:50;;;;;;;2.25;1.40;;;;;;;;;;5042123;28;20578;-93
2021/11/03 08:53:17;;;;;;;1.80;1.20;;;;;;;;;;5038094;28;20033;-92
2021/11/03 08:55:45;;;;;;;2.33;1.20;;;;;;;;;;5033861;28;20489;-91
2021/11/03 08:58:13;;;;;;;1.90;1.25;;;;;;;;;;5017946;28;20032;-90
2021/11/03 09:00:40;;;;;;;1.52;1.20;;;;;;;;;;5014602;28;20038;-94
2021/11/03 09:03:07;;;;;;;2.75;1.50;;;;;;;;;;5026657;28;20030;-91
2021/11/03 09:05:34;;;;;;;2.22;1.30;;;;;;;;;;5021827;28;20034;-93
2021/11/03 09:08:01;;;;;;;2.03;1.40;;;;;;;;;;5023464;28;20498;-93
2021/11/03 09:10:28;;;;;;;3.90;1.58;;;;;;;;;;5026050;28;20045;-92
2021/11/03 09:12:55;;;;;;;2.78;1.40;;;;;;;;;;5020783;28;20030;-92
2021/11/03 09:15:21;;;;;;;3.08;1.25;;;;;;;;;;5012843;28;20543;-90
2021/11/03 09:17:48;;;;;;;4.03;1.40;;;;;;;;;;5028331;28;20046;-91
2021/11/03 09:20:16;;;;;;;2.13;1.42;;;;;;;;;;5011430;28;20485;-91
2021/11/03 09:22:43;;;;;;;2.80;1.48;;;;;;;;;;5009661;28;20026;-91
2021/11/03 09:25:11;;;;;;;2.05;1.40;;;;;;;;;;5030760;28;20807;-92
2021/11/03 09:27:38;;;;;;;3.75;1.45;;;;;;;;;;5026038;28;20112;-93
2021/11/03 09:30:06;;;;;;;2.40;1.38;;;;;;;;;;5030723;28;20044;-93
2021/11/03 09:32:33;;;;;;;4.25;1.50;;;;;;;;;;5013825;28;20052;-93
2021/11/03 09:35:00;;;;;;;2.63;1.30;;;;;;;;;;5027378;28;20038;-92
2021/11/03 09:37:28;;;;;;;3.33;1.38;;;;;;;;;;5028477;28;20046;-92
2021/11/03 09:39:55;;;;;;;2.03;1.45;;;;;;;;;;5031081;28;20056;-91
2021/11/03 09:42:23;;;;;;;2.17;1.42;;;;;;;;;;5029490;28;20057;-88
2021/11/03 09:44:51;;;;;;;4.95;1.60;;;;;;;;;;5026631;28;20128;-91
2021/11/03 09:47:29;;;;;;;2.08;1.25;;;;;;;;;;5010483;28;20033;-90
2021/11/03 09:50:14;;;;;;;2.38;1.42;;;;;;;;;;5021179;28;20030;-90
2021/11/03 09:52:42;;;;;;;2.20;1.30;;;;;;;;;;5026681;28;20505;-91
2021/11/03 09:55:14;;;;;;;2.30;1.50;;;;;;;;;;5018887;28;20030;-91
2021/11/03 09:57:45;;;;;;;2.30;1.35;;;;;;;;;;5026073;28;20073;-91
2021/11/03 10:00:12;;;;;;;;;;;;;;;;;;5011435;28;20026;-92
2021/11/03 10:02:47;;;;;;;2.38;1.27;;;;;;;;;;5027543;28;20284;-91
2021/11/03 10:05:34;;;;;;;2.40;1.27;;;;;;;;;;5032009;28;20091;-92
2021/11/03 10:08:03;;;;;;;3.05;1.33;;;;;;;;;;5019448;28;20347;-93
2021/11/03 10:10:33;;;;;;;4.30;1.30;;;;;;;;;;5030347;28;20034;-92
2021/11/03 10:13:01;;;;;;;1.83;1.42;;;;;;;;;;5031720;28;20069;-91
2021/11/03 10:15:28;;;;;;;2.72;1.27;;;;;;;;;;5032130;28;20034;-91
2021/11/03 10:18:07;;;;;;;4.65;1.60;;;;;;;;;;5016284;28;20543;-91
2021/11/03 10:20:40;;;;;;;2.08;1.25;;;;;;;;;;5030996;28;20026;-90
2021/11/03 10:23:18;;;;;;;2.25;1.20;;;;;;;;;;5019730;28;20037;-91
2021/11/03 10:25:48;;;;;;;2.63;1.15;;;;;;;;;;5029215;28;20092;-94
2021/11/03 10:28:37;;;;;;;2.90;1.45;;;;;;;;;;4992163;28;20026;-91
2021/11/03 10:31:07;;;;;;;1.83;1.30;;;;;;;;;;5027212;28;20030;-91
2021/11/03 10:33:38;;;;;;;2.40;1.27;;;;;;;;;;5030879;28;20100;-92
2021/11/03 10:36:21;;;;;;;1.90;1.20;;;;;;;;;;4990159;28;20046;-93
2021/11/03 10:39:00;;;;;;;1.83;1.20;;;;;;;;;;5026667;28;20493;-91
2021/11/03 10:41:35;;;;;;;1.92;1.40;;;;;;;;;;5000604;28;20034;-92
2021/11/03 10:44:07;;;;;;;1.73;1.05;;;;;;;;;;5014804;28;20030;-92
2021/11/03 10:46:45;;;;;;;2.58;1.50;;;;;;;;;;5017557;28;20038;-90
2021/11/03 10:49:17;;;;;;;2.75;1.35;;;;;;;;;;5003938;28;20084;-90
2021/11/03 10:51:44;;;;;;;2.50;1.20;;;;;;;;;;4981799;28;20374;-91
2021/11/03 10:54:12;;;;;;;2.35;1.40;;;;;;;;;;5024105;28;20033;-89
2021/11/03 10:56:58;;;;;;;2.42;1.50;;;;;;;;;;4987944;28;20069;-93
2021/11/03 10:59:29;;;;;;;2.05;1.02;;;;;;;;;;4996568;28;20025;-91
2021/11/03 11:01:57;;;;;;;2.22;1.40;;;;;;;;;;5032302;28;20061;-91
2021/11/03 11:04:29;;;;;;;1.90;1.30;;;;;;;;;;5017634;28;20056;-91
2021/11/03 11:06:58;;;;;;;2.47;1.42;;;;;;;;;;5036181;28;20034;-92
2021/11/03 11:09:27;;;;;;;2.65;1.30;;;;;;;;;;5028434;28;20032;-91
2021/11/03 11:11:56;;;;;;;3.83;1.48;;;;;;;;;;5028872;28;20623;-90
2021/11/03 11:14:23;;;;;;;2.55;1.30;;;;;;;;;;5010630;28;20080;-89
2021/11/03 11:16:56;;;;;;;2.63;1.40;;;;;;;;;;5034780;28;20034;-92
2021/11/03 11:19:42;;;;;;;2.65;1.50;;;;;;;;;;5026421;28;20030;-91
2021/11/03 11:22:14;;;;;;;3.28;1.63;;;;;;;;;;5029437;28;20026;-91
2021/11/03 11:25:01;;;;;;;2.10;1.27;;;;;;;;;;5028929;28;20424;-91
2021/11/03 11:27:34;;;;;;;2.20;1.25;;;;;;;;;;5017982;28;20087;-90
2021/11/03 11:30:15;;;;;;;2.20;1.20;;;;;;;;;;5032396;28;20080;-92
2021/11/03 11:32:56;;;;;;;1.88;1.40;;;;;;;;;;5036504;28;20033;-90
2021/11/03 11:35:34;;;;;;;2.78;1.40;;;;;;;;;;5017574;28;20026;-89
2021/11/03 11:38:12;;;;;;;3.00;1.40;;;;;;;;;;5032640;28;20041;-91
2021/11/03 11:40:53;;;;;;;2.75;1.20;;;;;;;;;;5009993;28;20405;-91
2021/11/03 11:43:38;;;;;;;2.30;1.30;;;;;;;;;;5012808;28;20435;-91
2021/11/03 11:46:16;;;;;;;2.25;1.23;;;;;;;;;;5027181;28;20255;-92
2021/11/03 11:48:42;;;;;;;1.77;1.02;;;;;;;;;;5025940;28;20072;-91
2021/11/03 11:51:12;;;;;;;2.15;1.30;;;;;;;;;;5011824;28;20038;-92
2021/11/03 11:53:39;;;;;;;1.85;1.33;;;;;;;;;;5014131;28;20551;-93
2021/11/03 11:56:08;;;;;;;2.33;1.40;;;;;;;;;;5029673;28;20068;-90
2021/11/03 11:58:38;;;;;;;2.15;1.23;;;;;;;;;;5050749;28;20021;-92
2021/11/03 12:01:16;;;;;;;2.78;1.30;;;;;;;;;;5048027;28;20017;-91
2021/11/03 12:03:58;;;;;;;2.20;1.40;;;;;;;;;;5047820;28;20036;-92
2021/11/03 12:06:38;;;;;;;2.35;1.48;;;;;;;;;;5050133;28;20029;-92
2021/11/03 12:09:23;;;;;;;1.80;1.17;;;;;;;;;;5056308;28;20090;-92
2021/11/03 12:11:55;;;;;;;1.50;1.10;;;;;;;;;;5056390;28;21515;-91
2021/11/03 12:14:40;;;;;;;1.83;1.23;;;;;;;;;;5057499;28;20025;-85
2021/11/03 12:17:16;;;;;;;2.20;1.10;;;;;;;;;;5059655;28;20041;-92
2021/11/03 12:19:46;;;;;;;6.15;2.25;;;;;;;;;;5054747;28;20029;-91
2021/11/03 12:22:12;;;;;;;18.95;5.57;;;;;;;;;;5049073;28;20091;-92
2021/11/03 12:24:43;;;;;;;80.57;20.33;;;;;;;;;;5056019;28;20033;-90
2021/11/03 12:27:24;;;;;;;85.40;21.50;;;;;;;;;;5053658;28;20033;-93
2021/11/03 12:30:09;;;;;;;35.85;11.27;;;;;;;;;;5051014;28;20258;-91
2021/11/03 12:32:44;;;;;;;46.22;11.82;;;;;;;;;;5052705;28;20091;-91
2021/11/03 12:35:20;;;;;;;61.40;15.98;;;;;;;;;;5050636;28;20064;-91
2021/11/03 12:37:52;;;;;;;63.63;16.10;;;;;;;;;;5029537;28;20435;-93
2021/11/03 12:40:24;;;;;;;64.65;16.98;;;;;;;;;;5044797;28;20029;-92
2021/11/03 12:42:56;;;;;;;49.53;13.50;;;;;;;;;;5049951;28;20025;-92
2021/11/03 12:45:34;;;;;;;100.60;25.00;;;;;;;;;;5046033;28;20033;-91
2021/11/03 12:48:02;;;;;;;79.00;19.83;;;;;;;;;;5047633;28;20030;-91
2021/11/03 12:50:37;;;;;;;69.53;16.80;;;;;;;;;;5049367;28;20070;-90
2021/11/03 12:53:15;;;;;;;70.07;16.75;;;;;;;;;;5032966;28;20040;-91
2021/11/03 12:55:46;;;;;;;22.88;6.50;;;;;;;;;;5045453;28;20046;-90
2021/11/03 12:58:27;;;;;;;59.05;14.30;;;;;;;;;;5045974;28;20034;-90
2021/11/03 13:00:54;;;;;;;67.43;17.00;;;;;;;;;;5032250;28;20089;-91
2021/11/03 13:03:26;;;;;;;70.32;18.83;;;;;;;;;;5028781;28;20088;-92
2021/11/03 13:05:53;;;;;;;91.50;23.70;;;;;;;;;;5018456;28;20026;-90
2021/11/03 13:08:21;;;;;;;79.13;19.13;;;;;;;;;;5032403;28;20104;-90
2021/11/03 13:10:58;;;;;;;91.50;22.02;;;;;;;;;;5011075;28;20080;-90
2021/11/03 13:13:25;;;;;;;52.47;14.07;;;;;;;;;;5014149;28;20064;-92
2021/11/03 13:15:58;;;;;;;50.63;13.55;;;;;;;;;;5012844;28;20037;-93
2021/11/03 13:18:44;;;;;;;83.57;19.35;;;;;;;;;;5007016;28;20038;-91
2021/11/03 13:21:22;;;;;;;97.43;23.90;;;;;;;;;;5024797;28;20029;-92
2021/11/03 13:23:50;;;;;;;106.68;24.55;;;;;;;;;;5026462;28;21306;-92
2021/11/03 13:26:28;;;;;;;65.25;16.15;;;;;;;;;;5026845;28;20519;-92
2021/11/03 13:28:55;;;;;;;61.47;16.15;;;;;;;;;;5029322;28;21042;-91
2021/11/03 13:31:36;;;;;;;24.02;7.18;;;;;;;;;;5020796;28;20025;-91
2021/11/03 13:34:10;;;;;;;39.67;10.10;;;;;;;;;;5016233;28;20088;-91
2021/11/03 13:36:37;;;;;;;44.80;11.77;;;;;;;;;;5028030;28;20041;-91
2021/11/03 13:39:21;;;;;;;43.20;12.20;;;;;;;;;;5026682;28;20492;-92
2021/11/03 13:41:49;;;;;;;80.53;19.42;;;;;;;;;;5008934;28;20030;-91
2021/11/03 13:44:19;;;;;;;60.60;15.95;;;;;;;;;;5028029;28;20021;-91
2021/11/03 13:46:47;;;;;;;59.08;14.80;;;;;;;;;;5021820;28;20034;-92
2021/11/03 13:49:21;;;;;;;65.63;16.73;;;;;;;;;;5024329;28;20092;-91
2021/11/03 13:52:13;;;;;;;32.83;8.88;;;;;;;;;;5014394;28;20029;-92
2021/11/03 13:54:49;;;;;;;68.53;17.10;;;;;;;;;;5019241;28;20434;-91
2021/11/03 13:57:24;;;;;;;68.15;18.20;;;;;;;;;;5028130;28;20037;-90
2021/11/03 13:59:56;;;;;;;67.32;15.75;;;;;;;;;;5013079;28;20551;-91
2021/11/03 14:02:34;;;;;;;30.20;8.80;;;;;;;;;;5010039;28;20033;-89
2021/11/03 14:05:00;;;;;;;37.90;9.60;;;;;;;;;;5014107;28;20030;-91
2021/11/03 14:07:28;;;;;;;32.22;9.50;;;;;;;;;;5030998;28;20048;-90
2021/11/03 14:09:58;;;;;;;21.60;6.63;;;;;;;;;;5014206;28;20076;-91
2021/11/03 14:12:25;;;;;;;24.33;6.88;;;;;;;;;;5029650;28;20017;-91
2021/11/03 14:14:54;;;;;;;19.70;5.35;;;;;;;;;;5035728;28;20128;-94
2021/11/03 14:17:25;;;;;;;17.92;5.63;;;;;;;;;;5040672;28;20088;-92
2021/11/03 14:19:59;;;;;;;46.63;11.18;;;;;;;;;;5038067;28;20227;-92
2021/11/03 14:22:37;;;;;;;39.88;10.20;;;;;;;;;;5024993;28;20033;-91
2021/11/03 14:25:16;;;;;;;12.93;4.30;;;;;;;;;;5033815;28;20028;-91
2021/11/03 14:27:43;;;;;;;23.00;6.20;;;;;;;;;;5011658;28;20381;-90
2021/11/03 14:30:10;;;;;;;32.67;9.27;;;;;;;;;;5026546;28;20036;-89
2021/11/03 14:32:36;;;;;;;36.17;9.40;;;;;;;;;;5027503;28;20033;-92
2021/11/03 14:35:04;;;;;;;30.33;8.98;;;;;;;;;;5020556;28;20061;-94
2021/11/03 14:37:31;;;;;;;19.92;5.57;;;;;;;;;;5028001;28;20103;-93
2021/11/03 14:39:57;;;;;;;22.15;6.75;;;;;;;;;;5036405;28;20029;-92
2021/11/03 14:42:24;;;;;;;34.67;8.70;;;;;;;;;;5023808;28;20026;-93
2021/11/03 14:44:53;;;;;;;31.88;8.63;;;;;;;;;;5030469;28;20038;-93
2021/11/03 14:47:22;;;;;;;18.75;6.65;;;;;;;;;;4996620;28;20034;-89
2021/11/03 14:49:53;;;;;;;33.20;8.48;;;;;;;;;;5016455;28;21398;-92
2021/11/03 14:52:25;;;;;;;13.93;4.07;;;;;;;;;;5040093;28;20030;-92
2021/11/03 14:54:54;;;;;;;18.70;5.85;;;;;;;;;;5017097;28;21225;-93
2021/11/03 14:57:20;;;;;;;15.35;4.93;;;;;;;;;;5019158;28;20045;-94